Main page
METAR-TAF:

METAR-TAF

Airports :

Skellefteå Airport

Skellefteå, Sweden

latitude: 64-38N, longitude: 021-05E, elevation: 49 m

Current weather observation

The report was made 44 minutes ago, at 17:20 UTC
Wind 7 kt from the East/Southeast
Temperature 24°C
Humidity 57%
Pressure 1012 hPa
Visibility 10 km or more
no clouds below 1500 m and no cumulonimbus

METAR: ESNS 231720Z 11007KT CAVOK 24/15 Q1012

Time: 20:04 (18:04 UTC)

Forecast

The report was made 3 hours and 34 minutes ago, at 14:30 UTC
Forecast valid from 23 at 15 UTC to 23 at 18 UTC
Wind 7 kt from the South/Southeast
Visibility 10 km or more
no clouds below 1500 m and no cumulonimbus

TAF: ESNS 231430Z 2315/2318 15007KT CAVOK

Weather observations and forecasts of more than 4000 airports (METAR and TAF reports).

The available stations are represented by yellow and red dots on the map.

Hover mouse over dot to see the name of the station.

Then click to see weather observations and forecasts.

To change the map : click on the green buttons with a black cross to zoom in, on the green button with a dash to zoom out, or on the green arrows for adjacent maps.


METAR-TAF: